Cherry Creek, Idaho
Current Conditions -  °F | °C
As of 10:51 AM on Thursday 23 Oct 2014 (Local Time) from KLGU Reporting Station
Clear Clear  
Wind Chill: 46°   Ceiling: Unl
Heat Index: 46°   Visibility: 10mi
Dew Point: 33°   Wind: 3mph
Humidity: 61%   Direction: 280°W
Pressure: 30.17"   Gusts: NA
Location:  42.2285°N, 112.313°W
Report Text: KLGU 231651Z AUTO 28003KT 10SM CLR 08/01 A3017 RMK AO2 SLP213 T00780006 TSNO
Loading
Personal Weather Stations






























Interactive Weather Map
Tropical Storm Tracking
New forecast layout! Learn more

10-Day Weather Forecast

Advertisements
Track Severe Weather on mobile